LDSB METAR and TAF | Updated Today

LDSB METAR

Bol Airport

Bol Airport (LDSB) hasn't published a METAR.
We found the following current weather conditions for Bol from other sources.

Bol Airport (LDSB) METAR

  • Weather conditions right now at LDSB:
  • Present conditions: Clouds
  • Clouds: Scattered clouds
  • Cloud cover: 35%
  • Wind: 72 at 8kts
  • Temperature: 20.7 celsius
  • Feels like: 20.5 celsius
  • Pressure: 1016mb
  • Humidity: 65%


Useful to know...

LDSB TAF

Bol Airport

TAF LDSB 241125Z 2412/2512 14014KT CAVOK TX24/2412Z TN17/2503Z
Observation time: 31:25 hr. ago
Need help? Read our tutorial on how to read TAFs or read the parsed version below.

Parsed version of TAF for Bol Airport (LDSB)

  • From 24 May at 12:00 UTC, to day 25 of the month at 12:00 UTC
  • Visibility: Greater than 10 km
  • Wind: 140 degrees at 14